createdAt,value
2022-11-09T00:00:50.578Z,2.47
2022-11-09T00:03:18.931Z,2.57
2022-11-09T00:05:56.755Z,2.37
2022-11-09T00:08:26.677Z,2.27
2022-11-09T00:10:54.657Z,2.70
2022-11-09T00:13:23.164Z,2.20
2022-11-09T00:15:51.579Z,2.60
2022-11-09T00:18:19.573Z,2.37
2022-11-09T00:20:48.410Z,2.53
2022-11-09T00:23:17.369Z,2.47
2022-11-09T00:25:47.477Z,2.87
2022-11-09T00:28:15.940Z,2.70
2022-11-09T00:30:44.812Z,2.33
2022-11-09T00:33:12.779Z,2.60
2022-11-09T00:35:40.702Z,2.50
2022-11-09T00:38:08.759Z,2.60
2022-11-09T00:40:36.757Z,2.60
2022-11-09T00:43:06.108Z,2.60
2022-11-09T00:45:34.195Z,2.30
2022-11-09T00:48:02.327Z,2.40
2022-11-09T00:50:30.663Z,2.20
2022-11-09T00:52:58.636Z,2.17
2022-11-09T00:55:26.593Z,2.50
2022-11-09T00:57:54.918Z,2.47
2022-11-09T01:00:25.568Z,2.63
2022-11-09T01:02:53.965Z,2.57
2022-11-09T01:05:21.954Z,2.20
2022-11-09T01:07:49.996Z,2.37
2022-11-09T01:10:18.116Z,2.23
2022-11-09T01:12:46.095Z,3.07
2022-11-09T01:15:14.046Z,2.40
2022-11-09T01:17:43.424Z,2.33
2022-11-09T01:20:12.902Z,2.57
2022-11-09T01:22:40.881Z,2.30
2022-11-09T01:25:09.924Z,2.23
2022-11-09T01:27:37.914Z,2.30
2022-11-09T01:30:06.710Z,2.20
2022-11-09T01:32:34.665Z,2.67
2022-11-09T01:35:03.974Z,2.83
2022-11-09T01:37:31.932Z,2.03
2022-11-09T01:40:00.056Z,2.40
2022-11-09T01:42:28.013Z,2.93
2022-11-09T01:45:25.615Z,2.60
2022-11-09T01:47:58.599Z,2.10
2022-11-09T01:50:34.611Z,2.67
2022-11-09T01:53:05.462Z,2.53
2022-11-09T01:55:33.458Z,2.27
2022-11-09T01:58:06.383Z,2.43
2022-11-09T02:00:37.442Z,2.40
2022-11-09T02:03:08.853Z,2.97
2022-11-09T02:05:40.645Z,2.67
2022-11-09T02:08:10.026Z,2.60
2022-11-09T02:10:44.596Z,2.80
2022-11-09T02:13:16.709Z,2.20
2022-11-09T02:15:46.003Z,2.70
2022-11-09T02:18:14.827Z,2.40
2022-11-09T02:20:48.292Z,2.67
2022-11-09T02:23:17.057Z,2.53
2022-11-09T02:25:49.491Z,2.50
2022-11-09T02:28:18.472Z,2.50
2022-11-09T02:30:54.054Z,2.50
2022-11-09T02:33:22.636Z,2.33
2022-11-09T02:35:52.118Z,2.67
2022-11-09T02:38:20.265Z,2.77
2022-11-09T02:40:51.064Z,2.80
2022-11-09T02:43:20.680Z,3.13
2022-11-09T02:45:48.822Z,3.10
2022-11-09T02:48:16.783Z,2.90
2022-11-09T02:50:44.802Z,2.80
2022-11-09T02:53:14.135Z,2.93
2022-11-09T02:55:42.084Z,3.50
2022-11-09T02:58:10.064Z,3.43
2022-11-09T03:00:38.022Z,3.67
2022-11-09T03:03:06.295Z,3.33
2022-11-09T03:05:34.261Z,3.50
2022-11-09T03:08:02.623Z,3.20
2022-11-09T03:10:32.116Z,3.00
2022-11-09T03:13:00.164Z,3.30
2022-11-09T03:15:28.121Z,3.67
2022-11-09T03:17:57.136Z,3.40
2022-11-09T03:20:25.113Z,3.17
2022-11-09T03:22:53.124Z,3.23
2022-11-09T03:25:21.106Z,3.77
2022-11-09T03:27:50.418Z,3.73
2022-11-09T03:30:18.993Z,3.50
2022-11-09T03:32:50.572Z,4.30
2022-11-09T03:35:18.862Z,4.40
2022-11-09T03:37:46.868Z,3.70
2022-11-09T03:40:14.850Z,3.57
2022-11-09T03:42:45.815Z,4.07
2022-11-09T03:45:16.465Z,3.57
2022-11-09T03:47:45.180Z,4.40
2022-11-09T03:50:14.254Z,4.57
2022-11-09T03:52:45.161Z,4.40
2022-11-09T03:55:13.579Z,5.20
2022-11-09T03:57:42.167Z,4.70
2022-11-09T04:00:11.144Z,4.17
2022-11-09T04:02:40.622Z,4.40
2022-11-09T04:05:10.165Z,4.73
2022-11-09T04:07:38.158Z,4.70
2022-11-09T04:10:07.213Z,4.63
2022-11-09T04:12:35.246Z,4.07
2022-11-09T04:15:03.219Z,5.13
2022-11-09T04:17:31.190Z,4.43
2022-11-09T04:20:00.612Z,4.27
2022-11-09T04:22:28.567Z,4.43
2022-11-09T04:24:56.530Z,4.63
2022-11-09T04:27:24.479Z,4.73
2022-11-09T04:29:52.426Z,4.30
2022-11-09T04:32:20.356Z,4.93
2022-11-09T04:34:48.344Z,5.23
2022-11-09T04:37:17.694Z,5.00
2022-11-09T04:39:45.720Z,5.07
2022-11-09T04:42:13.666Z,5.00
2022-11-09T04:44:41.611Z,5.30
2022-11-09T04:47:09.619Z,4.90
2022-11-09T04:49:37.574Z,4.70
2022-11-09T04:52:05.861Z,5.30
2022-11-09T04:54:35.205Z,5.40
2022-11-09T04:57:03.180Z,6.10
2022-11-09T04:59:31.167Z,5.00
2022-11-09T05:01:59.143Z,5.47
2022-11-09T05:04:27.139Z,5.30
2022-11-09T05:06:55.136Z,5.43
2022-11-09T05:09:23.177Z,5.10
2022-11-09T05:11:53.042Z,5.53
2022-11-09T05:14:20.986Z,5.40
2022-11-09T05:16:48.962Z,5.10
2022-11-09T05:19:17.002Z,6.03
2022-11-09T05:21:44.991Z,6.67
2022-11-09T05:24:12.139Z,5.00
2022-11-09T05:26:42.399Z,5.23
2022-11-09T05:29:13.056Z,5.50
2022-11-09T05:31:43.679Z,5.60
2022-11-09T05:34:14.646Z,5.30
2022-11-09T05:36:42.919Z,4.97
2022-11-09T05:39:10.925Z,6.00
2022-11-09T05:41:38.904Z,5.30
2022-11-09T05:44:06.893Z,5.03
2022-11-09T05:46:36.254Z,5.57
2022-11-09T05:49:04.391Z,5.80
2022-11-09T05:51:32.436Z,5.50
2022-11-09T05:54:00.417Z,5.83
2022-11-09T05:56:28.586Z,5.53
2022-11-09T05:58:57.218Z,5.90
2022-11-09T06:01:25.235Z,5.40
2022-11-09T06:03:56.206Z,5.83
2022-11-09T06:06:24.269Z,5.77
2022-11-09T06:08:52.288Z,5.73
2022-11-09T06:11:24.145Z,5.70
2022-11-09T06:13:52.776Z,5.93
2022-11-09T06:16:20.830Z,5.60
2022-11-09T06:18:48.831Z,5.60
2022-11-09T06:21:18.250Z,6.40
2022-11-09T06:23:46.446Z,6.27
2022-11-09T06:26:14.776Z,6.57
2022-11-09T06:28:43.605Z,6.57
2022-11-09T06:31:14.001Z,6.73
2022-11-09T06:33:42.161Z,6.37
2022-11-09T06:36:11.438Z,6.53
2022-11-09T06:38:40.830Z,6.27
2022-11-09T06:41:09.836Z,6.30
2022-11-09T06:43:37.856Z,6.63
2022-11-09T06:46:06.748Z,6.57
2022-11-09T06:48:34.838Z,6.00
2022-11-09T06:51:03.216Z,5.70
2022-11-09T06:53:32.427Z,5.80
2022-11-09T06:56:03.046Z,6.23
2022-11-09T06:58:31.431Z,6.20
2022-11-09T07:00:59.919Z,5.80
2022-11-09T07:03:27.934Z,6.20
2022-11-09T07:05:55.993Z,6.50
2022-11-09T07:08:24.139Z,6.50
2022-11-09T07:10:52.837Z,5.83
2022-11-09T07:13:22.609Z,6.80
2022-11-09T07:15:54.523Z,5.90
2022-11-09T07:18:22.484Z,5.93
2022-11-09T07:20:50.831Z,6.00
2022-11-09T07:23:19.136Z,5.33
2022-11-09T07:25:47.557Z,5.70
2022-11-09T07:28:15.666Z,5.33
2022-11-09T07:30:45.131Z,6.43
2022-11-09T07:33:19.128Z,5.10
2022-11-09T07:35:47.897Z,5.57
2022-11-09T07:38:16.936Z,5.40
2022-11-09T07:40:45.103Z,5.50
2022-11-09T07:43:13.845Z,5.33
2022-11-09T07:45:42.035Z,5.87
2022-11-09T07:48:12.492Z,6.00
2022-11-09T07:50:41.291Z,5.20
2022-11-09T07:53:11.286Z,5.13
2022-11-09T07:55:39.366Z,5.40
2022-11-09T07:58:09.257Z,5.47
2022-11-09T08:00:39.109Z,5.87
2022-11-09T08:03:07.192Z,5.47
2022-11-09T08:05:37.328Z,6.10
2022-11-09T08:08:07.842Z,5.87
2022-11-09T08:10:36.803Z,5.40
2022-11-09T08:13:06.622Z,5.83
2022-11-09T08:15:36.335Z,6.30
2022-11-09T08:18:06.787Z,5.83
2022-11-09T08:20:36.888Z,5.90
2022-11-09T08:23:05.343Z,6.07
2022-11-09T08:25:34.165Z,5.87
2022-11-09T08:28:03.363Z,5.90
2022-11-09T08:30:31.975Z,6.20
2022-11-09T08:33:00.991Z,5.87
2022-11-09T08:35:29.610Z,5.47
2022-11-09T08:38:02.574Z,5.90
2022-11-09T08:40:31.756Z,6.03
2022-11-09T08:43:03.849Z,5.80
2022-11-09T08:45:33.886Z,5.43
2022-11-09T08:48:02.541Z,5.93
2022-11-09T08:50:32.250Z,5.53
2022-11-09T08:53:02.162Z,6.43
2022-11-09T08:55:31.292Z,5.63
2022-11-09T08:58:01.386Z,5.23
2022-11-09T09:00:30.402Z,5.97
2022-11-09T09:02:58.424Z,5.77
2022-11-09T09:05:26.577Z,5.83
2022-11-09T09:07:54.642Z,5.87
2022-11-09T09:10:23.985Z,6.60
2022-11-09T09:12:51.986Z,5.83
2022-11-09T09:15:20.248Z,6.70
2022-11-09T09:17:48.343Z,6.27
2022-11-09T09:20:17.441Z,5.70
2022-11-09T09:22:45.526Z,6.17
2022-11-09T09:25:13.842Z,5.83
2022-11-09T09:27:45.209Z,5.47
2022-11-09T09:30:14.329Z,5.37
2022-11-09T09:32:42.923Z,5.63
2022-11-09T09:35:11.602Z,5.60
2022-11-09T09:37:39.654Z,5.80
2022-11-09T09:40:08.942Z,6.37
2022-11-09T09:42:38.691Z,5.63
2022-11-09T09:45:15.675Z,6.17
2022-11-09T09:47:51.284Z,6.00
2022-11-09T09:50:24.077Z,6.27
2022-11-09T09:53:23.138Z,6.30
2022-11-09T09:55:51.573Z,6.53
2022-11-09T09:58:24.742Z,7.07
2022-11-09T10:00:59.601Z,6.77
2022-11-09T10:03:27.668Z,6.67
2022-11-09T10:06:02.391Z,6.50
2022-11-09T10:08:42.903Z,6.90
2022-11-09T10:11:24.733Z,7.07
2022-11-09T10:14:22.157Z,6.90
2022-11-09T10:16:59.243Z,7.37
2022-11-09T10:19:39.988Z,7.33
2022-11-09T10:22:16.788Z,7.07
2022-11-09T10:25:18.404Z,7.07
2022-11-09T10:27:47.206Z,7.27
2022-11-09T10:30:18.345Z,8.03
2022-11-09T10:32:51.429Z,7.10
2022-11-09T10:35:22.493Z,6.77
2022-11-09T10:37:52.349Z,7.50
2022-11-09T10:40:25.256Z,7.60
2022-11-09T10:42:56.514Z,6.80
2022-11-09T10:45:31.693Z,7.73
2022-11-09T10:48:01.942Z,6.97
2022-11-09T10:50:34.308Z,7.27
2022-11-09T10:53:16.739Z,7.40
2022-11-09T10:55:56.047Z,7.37
2022-11-09T10:58:33.979Z,6.90
2022-11-09T11:01:05.407Z,6.97
2022-11-09T11:03:38.250Z,7.73
2022-11-09T11:06:07.637Z,6.77
2022-11-09T11:08:38.852Z,7.10
2022-11-09T11:11:37.551Z,6.27
2022-11-09T11:14:15.861Z,6.90
2022-11-09T11:16:47.294Z,5.87
2022-11-09T11:19:33.884Z,6.93
2022-11-09T11:22:19.120Z,6.87
2022-11-09T11:24:56.349Z,6.70
2022-11-09T11:27:29.632Z,6.13
2022-11-09T11:30:05.276Z,6.07
2022-11-09T11:32:33.609Z,6.77
2022-11-09T11:35:05.288Z,6.50
2022-11-09T11:37:47.082Z,6.20
2022-11-09T11:40:21.270Z,6.23
2022-11-09T11:43:04.206Z,5.53
2022-11-09T11:45:41.026Z,6.00
2022-11-09T11:48:27.201Z,5.57
2022-11-09T11:51:04.477Z,5.93
2022-11-09T11:53:47.113Z,5.87
2022-11-09T11:56:35.716Z,5.97
2022-11-09T11:59:25.543Z,5.73
2022-11-09T12:02:22.233Z,5.77
2022-11-09T12:05:26.055Z,5.40
2022-11-09T12:08:03.795Z,5.53
2022-11-09T12:10:45.573Z,6.00
2022-11-09T12:13:25.610Z,5.90
2022-11-09T12:16:00.746Z,6.30
2022-11-09T12:18:50.611Z,5.67
2022-11-09T12:21:20.400Z,5.63
2022-11-09T12:24:07.595Z,5.50
2022-11-09T12:27:04.655Z,4.87
2022-11-09T12:29:45.487Z,5.73
2022-11-09T12:32:22.894Z,5.90
2022-11-09T12:34:57.734Z,5.73
2022-11-09T12:37:30.373Z,5.40
2022-11-09T12:40:13.187Z,5.27
2022-11-09T12:42:47.219Z,5.07
2022-11-09T12:45:23.993Z,5.57
2022-11-09T12:47:54.736Z,4.60
2022-11-09T12:50:25.519Z,4.70
2022-11-09T12:52:54.539Z,4.60
2022-11-09T12:55:30.085Z,4.53
2022-11-09T12:58:00.899Z,4.47
2022-11-09T13:00:48.409Z,4.13
2022-11-09T13:03:28.585Z,3.80
2022-11-09T13:06:15.020Z,4.10
2022-11-09T13:08:47.203Z,3.90
2022-11-09T13:11:26.793Z,4.03
2022-11-09T13:14:33.803Z,4.67
2022-11-09T13:17:03.947Z,4.70
2022-11-09T13:19:52.384Z,4.03
2022-11-09T13:22:53.756Z,4.00
2022-11-09T13:25:50.924Z,4.07
2022-11-09T13:28:45.197Z,4.77
2022-11-09T13:31:13.275Z,5.17
2022-11-09T13:33:42.277Z,5.43
2022-11-09T13:36:21.785Z,4.13
2022-11-09T13:39:34.939Z,3.90
2022-11-09T13:42:05.803Z,4.93
2022-11-09T13:44:37.759Z,4.53
2022-11-09T13:47:21.537Z,4.53
2022-11-09T13:49:51.358Z,4.33
2022-11-09T13:52:50.161Z,3.97
2022-11-09T13:55:34.335Z,4.13
2022-11-09T13:58:07.640Z,3.97
2022-11-09T14:00:37.056Z,4.30
2022-11-09T14:03:22.058Z,4.53
2022-11-09T14:05:53.492Z,4.40
2022-11-09T14:08:24.426Z,4.43
2022-11-09T14:11:39.427Z,4.27
2022-11-09T14:14:22.717Z,4.63
2022-11-09T14:16:59.146Z,4.67
2022-11-09T14:19:37.042Z,4.43
2022-11-09T14:22:16.173Z,4.23
2022-11-09T14:24:44.942Z,4.47
2022-11-09T14:27:19.489Z,4.33
2022-11-09T14:29:53.764Z,4.70
2022-11-09T14:32:29.039Z,7.20
2022-11-09T14:35:12.737Z,4.33
2022-11-09T14:37:45.394Z,5.27
2022-11-09T14:40:19.467Z,4.20
2022-11-09T14:42:50.616Z,4.30
2022-11-09T14:45:19.416Z,4.70
2022-11-09T14:47:50.600Z,5.33
2022-11-09T14:50:22.103Z,5.17
2022-11-09T14:52:51.613Z,4.80
2022-11-09T14:55:21.409Z,4.70
2022-11-09T14:57:51.171Z,4.67
2022-11-09T15:00:31.734Z,5.10
2022-11-09T15:03:01.809Z,3.83
2022-11-09T15:05:38.982Z,4.60
2022-11-09T15:08:14.895Z,4.93
2022-11-09T15:10:49.254Z,4.93
2022-11-09T15:13:17.374Z,4.67
2022-11-09T15:15:52.592Z,4.83
2022-11-09T15:18:31.864Z,5.20
2022-11-09T15:21:19.641Z,4.60
2022-11-09T15:23:49.841Z,5.50
2022-11-09T15:26:34.186Z,5.20
2022-11-09T15:29:02.520Z,6.50
2022-11-09T15:31:30.571Z,6.10
2022-11-09T15:33:59.955Z,5.97
2022-11-09T15:36:31.360Z,5.40
2022-11-09T15:39:09.041Z,5.10
2022-11-09T15:41:38.331Z,5.93
2022-11-09T15:44:07.127Z,5.80
2022-11-09T15:46:38.653Z,5.67
2022-11-09T15:49:18.130Z,6.10
2022-11-09T15:51:46.674Z,5.70
2022-11-09T15:54:15.452Z,6.23
2022-11-09T15:56:43.772Z,6.30
2022-11-09T15:59:19.872Z,6.40
2022-11-09T16:01:47.879Z,7.33
2022-11-09T16:04:17.336Z,6.57
2022-11-09T16:06:46.812Z,6.73
2022-11-09T16:09:15.811Z,7.10
2022-11-09T16:11:43.752Z,6.60
2022-11-09T16:14:11.707Z,7.17
2022-11-09T16:16:39.788Z,6.73
2022-11-09T16:19:07.793Z,6.93
2022-11-09T16:21:37.188Z,7.47
2022-11-09T16:24:05.591Z,6.87
2022-11-09T16:26:33.685Z,7.60
2022-11-09T16:29:02.327Z,6.93
2022-11-09T16:31:50.187Z,7.17
2022-11-09T16:34:18.288Z,7.30
2022-11-09T16:36:53.787Z,6.60
2022-11-09T16:39:26.876Z,6.47
2022-11-09T16:41:55.200Z,6.83
2022-11-09T16:44:25.104Z,6.97
2022-11-09T16:46:53.209Z,6.97
2022-11-09T16:49:21.369Z,7.10
2022-11-09T16:51:50.816Z,6.83
2022-11-09T16:54:18.805Z,7.40
2022-11-09T16:56:48.032Z,8.50
2022-11-09T16:59:16.039Z,7.73
2022-11-09T17:01:44.089Z,8.20
2022-11-09T17:04:12.199Z,7.53
2022-11-09T17:06:40.297Z,7.93
2022-11-09T17:09:09.726Z,8.23
2022-11-09T17:11:37.840Z,8.00
2022-11-09T17:14:06.161Z,8.33
2022-11-09T17:16:34.260Z,9.50
2022-11-09T17:19:02.818Z,9.10
2022-11-09T17:21:31.161Z,8.33
2022-11-09T17:24:00.439Z,8.27
2022-11-09T17:26:32.602Z,8.50
2022-11-09T17:29:00.631Z,8.83
2022-11-09T17:31:28.650Z,8.97
2022-11-09T17:34:01.122Z,8.20
2022-11-09T17:36:49.191Z,8.67
2022-11-09T17:39:17.390Z,8.63
2022-11-09T17:41:46.748Z,8.17
2022-11-09T17:44:14.871Z,9.30
2022-11-09T17:46:43.030Z,8.87
2022-11-09T17:49:11.017Z,8.80
2022-11-09T17:51:39.341Z,8.63
2022-11-09T17:54:07.462Z,9.00
2022-11-09T17:56:35.937Z,8.13
2022-11-09T17:59:06.446Z,8.87
2022-11-09T18:01:40.820Z,8.73
2022-11-09T18:04:11.347Z,8.07
2022-11-09T18:06:40.142Z,8.77
2022-11-09T18:09:39.705Z,9.30
2022-11-09T18:11:56.247Z,8.60
2022-11-09T18:14:25.597Z,8.57
2022-11-09T18:16:53.569Z,8.73
2022-11-09T18:19:21.738Z,8.10
2022-11-09T18:21:49.739Z,8.97
2022-11-09T18:24:17.769Z,8.93
2022-11-09T18:26:45.779Z,8.33
2022-11-09T18:29:13.802Z,8.40
2022-11-09T18:31:43.168Z,8.33
2022-11-09T18:34:11.991Z,9.30
2022-11-09T18:36:39.995Z,8.53
2022-11-09T18:39:08.024Z,8.53
2022-11-09T18:41:36.014Z,8.50
2022-11-09T18:44:04.006Z,8.87
2022-11-09T18:46:33.194Z,9.10
2022-11-09T18:49:02.544Z,9.93
2022-11-09T18:51:30.561Z,8.40
2022-11-09T18:53:58.570Z,9.50
2022-11-09T18:56:26.973Z,9.33
2022-11-09T18:58:56.617Z,8.83
2022-11-09T19:01:27.080Z,8.57
2022-11-09T19:03:59.198Z,8.50
2022-11-09T19:06:29.515Z,8.27
2022-11-09T19:09:14.845Z,9.37
2022-11-09T19:11:43.056Z,8.53
2022-11-09T19:14:11.261Z,9.70
2022-11-09T19:16:39.477Z,9.27
2022-11-09T19:19:07.469Z,8.87
2022-11-09T19:21:42.496Z,8.07
2022-11-09T19:24:13.751Z,8.80
2022-11-09T19:26:41.912Z,8.40
2022-11-09T19:29:10.730Z,8.60
2022-11-09T19:31:42.958Z,8.30
2022-11-09T19:34:11.075Z,8.33
2022-11-09T19:36:42.013Z,8.83
2022-11-09T19:39:10.158Z,7.53
2022-11-09T19:41:38.166Z,7.60
2022-11-09T19:44:07.173Z,7.97
2022-11-09T19:46:36.853Z,8.20
2022-11-09T19:49:05.422Z,7.67
2022-11-09T19:51:34.717Z,7.23
2022-11-09T19:54:05.949Z,7.60
2022-11-09T19:56:34.488Z,7.43
2022-11-09T19:59:04.238Z,7.67
2022-11-09T20:01:32.348Z,7.77
2022-11-09T20:04:06.356Z,7.73
2022-11-09T20:06:38.011Z,7.63
2022-11-09T20:09:07.555Z,7.33
2022-11-09T20:11:52.958Z,7.27
2022-11-09T20:14:21.212Z,7.17
2022-11-09T20:16:49.351Z,7.60
2022-11-09T20:19:17.709Z,6.77
2022-11-09T20:21:45.815Z,7.47
2022-11-09T20:24:15.319Z,7.33
2022-11-09T20:26:44.072Z,6.33
2022-11-09T20:29:12.470Z,7.17
2022-11-09T20:31:40.920Z,6.93
2022-11-09T20:34:09.038Z,6.70
2022-11-09T20:36:37.079Z,6.73
2022-11-09T20:39:05.389Z,6.40
2022-11-09T20:41:36.410Z,7.37
2022-11-09T20:44:04.432Z,6.83
2022-11-09T20:46:36.278Z,6.50
2022-11-09T20:49:05.251Z,6.73
2022-11-09T20:51:33.231Z,6.43
2022-11-09T20:54:06.830Z,6.97
2022-11-09T20:56:37.592Z,5.80
2022-11-09T20:59:05.813Z,6.03
2022-11-09T21:01:34.171Z,4.87
2022-11-09T21:04:02.317Z,5.10
2022-11-09T21:06:31.179Z,5.33
2022-11-09T21:09:00.948Z,5.03
2022-11-09T21:11:35.579Z,4.73
2022-11-09T21:14:05.092Z,4.93
2022-11-09T21:16:33.088Z,4.90
2022-11-09T21:19:01.088Z,4.23
2022-11-09T21:21:35.005Z,4.57
2022-11-09T21:24:22.270Z,4.97
2022-11-09T21:27:07.872Z,4.97
2022-11-09T21:29:52.178Z,4.87
2022-11-09T21:32:20.874Z,5.13
2022-11-09T21:34:49.101Z,4.43
2022-11-09T21:37:18.788Z,5.00
2022-11-09T21:39:46.762Z,4.50
2022-11-09T21:42:14.830Z,5.03
2022-11-09T21:44:44.325Z,4.97
2022-11-09T21:47:12.262Z,4.77
2022-11-09T21:49:40.286Z,5.00
2022-11-09T21:52:08.303Z,4.57
2022-11-09T21:54:36.276Z,4.70
2022-11-09T21:57:04.522Z,4.73
2022-11-09T21:59:32.506Z,4.03
2022-11-09T22:02:01.857Z,4.40
2022-11-09T22:04:29.832Z,5.00
2022-11-09T22:06:57.892Z,4.33
2022-11-09T22:09:25.906Z,4.60
2022-11-09T22:12:11.585Z,4.93
2022-11-09T22:14:57.109Z,4.63
2022-11-09T22:17:26.509Z,3.90
2022-11-09T22:20:11.876Z,4.33
2022-11-09T22:22:39.882Z,4.40
2022-11-09T22:25:09.086Z,4.07
2022-11-09T22:27:37.007Z,4.10
2022-11-09T22:30:05.905Z,4.23
2022-11-09T22:32:35.260Z,4.20
2022-11-09T22:35:03.297Z,4.63
2022-11-09T22:37:31.284Z,4.57
2022-11-09T22:39:59.280Z,4.23
2022-11-09T22:42:27.281Z,4.10
2022-11-09T22:44:55.299Z,4.10
2022-11-09T22:47:23.744Z,3.70
2022-11-09T22:49:53.107Z,4.33
2022-11-09T22:52:21.102Z,4.23
2022-11-09T22:54:49.078Z,3.60
2022-11-09T22:57:17.042Z,3.50
2022-11-09T22:59:45.015Z,3.73
2022-11-09T23:02:13.001Z,3.90
2022-11-09T23:04:41.011Z,4.03
2022-11-09T23:07:10.460Z,3.73
2022-11-09T23:09:38.537Z,3.67
2022-11-09T23:12:06.969Z,3.77
2022-11-09T23:14:52.358Z,3.80
2022-11-09T23:17:37.753Z,3.57
2022-11-09T23:20:06.656Z,3.50
2022-11-09T23:22:35.985Z,3.67
2022-11-09T23:25:21.211Z,3.23
2022-11-09T23:27:51.862Z,3.30
2022-11-09T23:30:20.177Z,3.57
2022-11-09T23:32:48.140Z,3.47
2022-11-09T23:35:16.335Z,3.10
2022-11-09T23:37:45.757Z,3.40
2022-11-09T23:40:14.141Z,3.57
2022-11-09T23:42:42.197Z,3.00
2022-11-09T23:45:11.074Z,3.20
2022-11-09T23:47:39.032Z,2.67
2022-11-09T23:50:07.886Z,3.00
2022-11-09T23:52:36.159Z,3.10
2022-11-09T23:55:06.143Z,2.90
2022-11-09T23:57:34.103Z,3.30
